Time;durP1;ratioP1;P1;durP2;ratioP2;P2;SDS_P1;SDS_P2;PMS_P1;PMS_P2;Temp;Humidity;BMP_temperature;BMP_pressure;BME280_temperature;BME280_humidity;BME280_pressure;Samples;Min_cycle;Max_cycle;Signal;HPM_P1;HPM_P2
2022/11/30 00:00:58;;;;;;;21.60;7.80;;;7.90;99.90;;;;;;5038658;28;20040;-65
2022/11/30 00:03:24;;;;;;;16.10;7.03;;;7.90;99.90;;;;;;5045220;28;20037;-66
2022/11/30 00:05:51;;;;;;;17.13;7.43;;;7.90;99.90;;;;;;5029474;28;20489;-65
2022/11/30 00:08:17;;;;;;;18.65;8.23;;;7.80;99.90;;;;;;5044391;28;20044;-66
2022/11/30 00:10:42;;;;;;;22.67;8.38;;;7.80;99.90;;;;;;5048075;28;20146;-66
2022/11/30 00:13:09;;;;;;;24.33;8.18;;;7.80;99.90;;;;;;5042943;28;20029;-66
2022/11/30 00:15:36;;;;;;;15.20;8.32;;;7.80;99.90;;;;;;5030747;28;20040;-66
2022/11/30 00:18:02;;;;;;;15.65;6.78;;;7.80;99.90;;;;;;5042209;28;20083;-66
2022/11/30 00:20:28;;;;;;;20.13;9.57;;;7.80;99.90;;;;;;5048062;28;20029;-66
2022/11/30 00:22:56;;;;;;;21.92;7.93;;;7.70;99.90;;;;;;5042721;28;20028;-66
2022/11/30 00:25:23;;;;;;;21.40;8.02;;;7.70;99.90;;;;;;5029977;28;20083;-66
2022/11/30 00:27:49;;;;;;;22.40;7.57;;;7.80;99.90;;;;;;5042550;28;20128;-66
2022/11/30 00:30:15;;;;;;;25.98;10.52;;;7.80;99.90;;;;;;5048152;28;20539;-65
2022/11/30 00:32:41;;;;;;;19.38;8.07;;;7.70;99.90;;;;;;5042376;28;20075;-66
2022/11/30 00:35:06;;;;;;;22.92;8.70;;;7.70;99.90;;;;;;5030020;28;20035;-66
2022/11/30 00:37:34;;;;;;;24.00;7.13;;;7.70;99.90;;;;;;5042620;28;20032;-66
2022/11/30 00:39:59;;;;;;;16.60;6.80;;;7.70;99.90;;;;;;5030092;28;20034;-66
2022/11/30 00:42:25;;;;;;;20.75;8.05;;;7.60;99.90;;;;;;5042460;28;20096;-66
2022/11/30 00:44:51;;;;;;;26.00;9.23;;;7.70;99.90;;;;;;5047549;28;20034;-66
2022/11/30 00:47:17;;;;;;;21.52;6.75;;;7.70;99.90;;;;;;5042357;28;20095;-66
2022/11/30 00:49:42;;;;;;;14.38;6.78;;;7.70;99.90;;;;;;5047603;28;20040;-66
2022/11/30 00:52:08;;;;;;;19.63;7.05;;;7.60;99.90;;;;;;5042276;28;20032;-65
2022/11/30 00:54:34;;;;;;;16.60;6.78;;;7.60;99.90;;;;;;5049000;28;20025;-66
2022/11/30 00:56:59;;;;;;;20.50;8.48;;;7.60;99.90;;;;;;5040461;28;20061;-66
2022/11/30 00:59:25;;;;;;;21.70;7.18;;;7.60;99.90;;;;;;5050582;28;20053;-66
2022/11/30 01:01:53;;;;;;;15.07;6.80;;;7.60;99.90;;;;;;5039177;28;20040;-66
2022/11/30 01:04:19;;;;;;;33.17;10.70;;;7.60;99.90;;;;;;5050386;28;20094;-66
2022/11/30 01:06:45;;;;;;;20.15;7.45;;;7.60;99.90;;;;;;5021720;28;20041;-66
2022/11/30 01:09:11;;;;;;;22.95;7.97;;;7.60;99.90;;;;;;5050645;28;20033;-66
2022/11/30 01:11:36;;;;;;;24.00;7.90;;;7.60;99.90;;;;;;5039458;28;20038;-66
2022/11/30 01:14:03;;;;;;;23.73;8.10;;;7.50;99.90;;;;;;5049411;28;20045;-65
2022/11/30 01:16:32;;;;;;;23.98;6.63;;;7.60;99.90;;;;;;5040567;28;20048;-65
2022/11/30 01:18:58;;;;;;;24.52;8.48;;;7.60;99.90;;;;;;5031627;28;20052;-65
2022/11/30 01:21:27;;;;;;;18.65;6.97;;;7.60;99.90;;;;;;5023800;28;20033;-65
2022/11/30 01:23:53;;;;;;;17.05;7.43;;;7.60;99.90;;;;;;5048291;28;20048;-65
2022/11/30 01:26:19;;;;;;;25.65;6.18;;;7.50;99.90;;;;;;5042122;28;20543;-65
2022/11/30 01:28:50;;;;;;;16.98;7.00;;;7.50;99.90;;;;;;5047372;28;20120;-66
2022/11/30 01:31:16;;;;;;;;;;;7.60;99.90;;;;;;5028818;28;20049;-65
2022/11/30 01:33:42;;;;;;;33.08;7.43;;;7.60;99.90;;;;;;5032927;28;19908;-65
2022/11/30 01:36:15;;;;;;;19.35;8.63;;;7.60;99.90;;;;;;5029734;28;20025;-65
2022/11/30 01:38:45;;;;;;;18.35;6.63;;;7.50;99.90;;;;;;5033146;28;20039;-65
2022/11/30 01:41:20;;;;;;;17.52;6.97;;;7.50;99.90;;;;;;5029506;28;20072;-66
2022/11/30 01:43:51;;;;;;;20.35;7.30;;;7.50;99.90;;;;;;5033834;28;20028;-65
2022/11/30 01:46:41;;;;;;;18.83;6.95;;;7.50;99.90;;;;;;5028951;28;20029;-66
2022/11/30 01:49:09;;;;;;;18.73;7.22;;;7.50;99.90;;;;;;4997439;28;20045;-65
2022/11/30 01:51:59;;;;;;;22.70;8.82;;;7.50;99.90;;;;;;5038127;28;20044;-65
2022/11/30 01:54:37;;;;;;;14.90;7.10;;;7.50;99.90;;;;;;4996586;28;20030;-65
2022/11/30 01:57:14;;;;;;;25.38;7.50;;;7.60;99.90;;;;;;5042229;28;20025;-66
2022/11/30 01:59:40;;;;;;;23.33;6.53;;;7.60;99.90;;;;;;5034004;28;20037;-65
2022/11/30 02:02:05;;;;;;;25.98;8.52;;;7.70;99.90;;;;;;5044952;28;20442;-65
2022/11/30 02:04:35;;;;;;;14.77;7.25;;;7.60;99.90;;;;;;5027215;28;20029;-65
2022/11/30 02:07:04;;;;;;;18.48;7.55;;;7.60;99.90;;;;;;5005983;28;20106;-65
2022/11/30 02:09:39;;;;;;;16.00;7.50;;;7.60;99.90;;;;;;5023766;28;20021;-65
2022/11/30 02:12:10;;;;;;;18.65;8.35;;;7.60;99.90;;;;;;5044516;28;20029;-65
2022/11/30 02:14:50;;;;;;;27.95;8.00;;;7.60;99.90;;;;;;5014967;28;20025;-65
2022/11/30 02:17:43;;;;;;;13.40;5.50;;;7.60;99.90;;;;;;5017366;28;20029;-65
2022/11/30 02:20:59;;;;;;;18.25;8.07;;;7.60;99.90;;;;;;5036080;28;20033;-65
2022/11/30 02:23:37;;;;;;;23.23;8.55;;;7.50;99.90;;;;;;5038614;28;20037;-65
2022/11/30 02:26:49;;;;;;;12.70;6.35;;;7.50;99.90;;;;;;5040060;28;20029;-65
2022/11/30 02:29:39;;;;;;;17.70;6.85;;;7.40;99.90;;;;;;5013730;28;20370;-65
2022/11/30 02:32:38;;;;;;;16.67;6.50;;;7.40;99.90;;;;;;5044227;28;20565;-65
2022/11/30 02:35:08;;;;;;;29.52;8.25;;;7.40;99.90;;;;;;5033360;28;20029;-65
2022/11/30 02:37:36;;;;;;;35.65;6.40;;;7.50;99.90;;;;;;5027435;28;20025;-65
2022/11/30 02:40:09;;;;;;;13.73;6.32;;;7.50;99.90;;;;;;5033181;28;20403;-65
2022/11/30 02:42:34;;;;;;;25.10;7.95;;;7.40;99.90;;;;;;5025794;28;20413;-67
2022/11/30 02:45:00;;;;;;;17.73;7.07;;;7.50;99.90;;;;;;5049807;28;20045;-65
2022/11/30 02:48:07;;;;;;;22.23;8.68;;;7.50;99.90;;;;;;5044318;28;20384;-65
2022/11/30 02:50:44;;;;;;;18.65;9.63;;;7.40;99.90;;;;;;5049829;28;20029;-65
2022/11/30 02:53:10;;;;;;;19.70;6.75;;;7.40;99.90;;;;;;5019762;28;20036;-65
2022/11/30 02:55:36;;;;;;;23.65;8.27;;;7.40;99.90;;;;;;5049773;28;20092;-65
2022/11/30 02:58:02;;;;;;;28.30;9.32;;;7.40;99.90;;;;;;5044263;28;20033;-65
2022/11/30 03:00:28;;;;;;;15.85;7.15;;;7.40;99.90;;;;;;5031993;28;20171;-65
2022/11/30 03:02:54;;;;;;;21.33;7.45;;;7.50;99.90;;;;;;5044193;28;20547;-65
2022/11/30 03:05:20;;;;;;;18.55;7.95;;;7.40;99.90;;;;;;5049132;28;20040;-65
2022/11/30 03:07:45;;;;;;;22.27;9.43;;;7.50;99.90;;;;;;5043866;28;20036;-65
2022/11/30 03:10:11;;;;;;;28.15;8.38;;;7.50;99.90;;;;;;5049388;28;20135;-64
2022/11/30 03:12:37;;;;;;;22.90;7.68;;;7.50;99.90;;;;;;5026147;28;20090;-65
2022/11/30 03:15:04;;;;;;;17.27;7.25;;;7.50;99.90;;;;;;5046978;28;20033;-65
2022/11/30 03:17:30;;;;;;;18.63;8.20;;;7.50;99.90;;;;;;5043942;28;20025;-66
2022/11/30 03:19:55;;;;;;;28.95;7.90;;;7.50;99.90;;;;;;5031907;28;20033;-65
2022/11/30 03:22:21;;;;;;;29.13;9.05;;;7.50;99.90;;;;;;5024747;28;20025;-66
2022/11/30 03:24:47;;;;;;;43.70;9.95;;;7.50;99.90;;;;;;5040445;28;20033;-65
2022/11/30 03:27:13;;;;;;;25.23;8.15;;;7.40;99.90;;;;;;5038201;28;20029;-66
2022/11/30 03:29:39;;;;;;;21.67;8.00;;;7.40;99.90;;;;;;5012636;28;20049;-65
2022/11/30 03:32:05;;;;;;;28.15;9.57;;;7.40;99.90;;;;;;5018270;28;20055;-66
2022/11/30 03:34:30;;;;;;;27.00;7.53;;;7.40;99.90;;;;;;5025507;28;20017;-65
2022/11/30 03:36:56;;;;;;;15.07;7.40;;;7.40;99.90;;;;;;5024043;28;20040;-66
2022/11/30 03:39:23;;;;;;;18.90;6.82;;;7.50;99.90;;;;;;5043631;28;20555;-66
2022/11/30 03:41:49;;;;;;;23.52;8.73;;;7.50;99.90;;;;;;5041744;28;20137;-66
2022/11/30 03:44:15;;;;;;;19.15;7.65;;;7.50;99.90;;;;;;5042979;28;20427;-65
2022/11/30 03:46:41;;;;;;;26.40;8.48;;;7.40;99.90;;;;;;5023826;28;20040;-66
2022/11/30 03:49:07;;;;;;;26.67;8.40;;;7.40;99.90;;;;;;5031722;28;20029;-65
2022/11/30 03:51:34;;;;;;;29.17;8.93;;;7.40;99.90;;;;;;5013259;28;20454;-65
2022/11/30 03:54:00;;;;;;;17.38;7.88;;;7.40;99.90;;;;;;5041849;28;20053;-65
2022/11/30 03:56:26;;;;;;;18.77;8.77;;;7.40;99.90;;;;;;5045530;28;20482;-65
2022/11/30 03:58:52;;;;;;;16.98;7.93;;;7.40;99.90;;;;;;5038911;28;20026;-65
2022/11/30 04:01:22;;;;;;;28.85;9.02;;;7.40;99.90;;;;;;5029798;28;20048;-65
2022/11/30 04:03:51;;;;;;;25.77;9.45;;;7.40;99.90;;;;;;5037779;28;20527;-65
2022/11/30 04:06:19;;;;;;;15.57;7.32;;;7.40;99.90;;;;;;5030537;28;20136;-65
2022/11/30 04:08:46;;;;;;;28.60;9.45;;;7.40;99.90;;;;;;5037143;28;20485;-65
2022/11/30 04:11:12;;;;;;;20.63;6.93;;;7.50;99.90;;;;;;5031422;28;20033;-65
2022/11/30 04:13:39;;;;;;;29.23;11.05;;;7.50;99.90;;;;;;5035240;28;20083;-65
2022/11/30 04:16:07;;;;;;;32.40;8.93;;;7.40;99.90;;;;;;5035136;28;20655;-65
2022/11/30 04:18:37;;;;;;;28.75;8.13;;;7.40;99.90;;;;;;5038956;28;20077;-65
2022/11/30 04:21:05;;;;;;;21.65;8.48;;;7.40;99.90;;;;;;5050705;28;20028;-65
2022/11/30 04:23:36;;;;;;;26.33;9.65;;;7.40;99.90;;;;;;5003693;28;20115;-65
2022/11/30 04:26:10;;;;;;;16.13;7.22;;;7.40;99.90;;;;;;5014528;28;20497;-65
2022/11/30 04:28:36;;;;;;;40.95;8.18;;;7.40;99.90;;;;;;5039340;28;20037;-66
2022/11/30 04:31:01;;;;;;;31.30;10.60;;;7.40;99.90;;;;;;5032346;28;20021;-66
2022/11/30 04:33:28;;;;;;;33.83;10.40;;;7.40;99.90;;;;;;5034146;28;20033;-66
2022/11/30 04:36:01;;;;;;;42.15;10.57;;;7.40;99.90;;;;;;5049105;28;20613;-66
2022/11/30 04:38:28;;;;;;;23.67;9.10;;;7.40;99.90;;;;;;5025271;28;20041;-67
2022/11/30 04:40:54;;;;;;;22.42;7.82;;;7.40;99.90;;;;;;5038501;28;20656;-66
2022/11/30 04:43:20;;;;;;;29.80;7.97;;;7.40;99.90;;;;;;5003482;28;20040;-78
2022/11/30 04:45:46;;;;;;;23.75;8.57;;;7.40;99.90;;;;;;5008213;28;20563;-66
2022/11/30 04:48:14;;;;;;;22.05;8.13;;;7.30;99.90;;;;;;5013651;28;20045;-67
2022/11/30 04:50:39;;;;;;;33.47;8.07;;;7.30;99.90;;;;;;5023221;28;20109;-67
2022/11/30 04:53:06;;;;;;;27.38;8.30;;;7.30;99.90;;;;;;5012333;28;20108;-66
2022/11/30 04:55:32;;;;;;;26.58;7.35;;;7.30;99.90;;;;;;5029644;28;20392;-66
2022/11/30 04:57:57;;;;;;;29.98;8.10;;;7.30;99.90;;;;;;5042176;28;20055;-66
2022/11/30 05:00:24;;;;;;;29.08;8.55;;;7.40;99.90;;;;;;5034692;28;20095;-67
2022/11/30 05:02:49;;;;;;;28.65;10.52;;;7.40;99.90;;;;;;5041761;28;20053;-67
2022/11/30 05:05:15;;;;;;;21.27;8.15;;;7.40;99.90;;;;;;5033955;28;20540;-66
2022/11/30 05:07:41;;;;;;;27.02;7.28;;;7.40;99.90;;;;;;5018243;28;20029;-66
2022/11/30 05:10:08;;;;;;;29.65;9.43;;;7.40;99.90;;;;;;5026065;28;20112;-66
2022/11/30 05:12:34;;;;;;;24.02;7.93;;;7.40;99.90;;;;;;5036189;28;20037;-66
2022/11/30 05:15:00;;;;;;;26.13;10.20;;;7.50;99.90;;;;;;5024411;28;20041;-66
2022/11/30 05:17:25;;;;;;;30.92;10.00;;;7.50;99.90;;;;;;5023223;28;20630;-66
2022/11/30 05:19:51;;;;;;;36.85;8.48;;;7.50;99.90;;;;;;5024050;28;20028;-73
2022/11/30 05:22:17;;;;;;;24.58;8.75;;;7.50;99.90;;;;;;5039868;28;20036;-66
2022/11/30 05:24:42;;;;;;;24.17;8.45;;;7.50;99.90;;;;;;5041378;28;20033;-67
2022/11/30 05:27:08;;;;;;;17.33;7.28;;;7.50;99.90;;;;;;5039881;28;20538;-67
2022/11/30 05:29:35;;;;;;;30.27;9.27;;;7.50;99.90;;;;;;5041714;28;20029;-66
2022/11/30 05:32:01;;;;;;;19.92;7.70;;;7.50;99.90;;;;;;5043347;28;20040;-66
2022/11/30 05:34:27;;;;;;;32.90;8.90;;;7.60;99.90;;;;;;5023663;28;20025;-66
2022/11/30 05:36:52;;;;;;;22.80;8.50;;;7.50;99.90;;;;;;5022198;28;20092;-66
2022/11/30 05:39:18;;;;;;;23.45;8.23;;;7.50;99.90;;;;;;5038972;28;20049;-67
2022/11/30 05:41:44;;;;;;;22.15;7.55;;;7.40;99.90;;;;;;5025537;28;20038;-66
2022/11/30 05:44:10;;;;;;;15.85;7.15;;;7.40;99.90;;;;;;5041298;28;20400;-66
2022/11/30 05:46:36;;;;;;;24.88;8.32;;;7.40;99.90;;;;;;5041494;28;20045;-66
2022/11/30 05:49:03;;;;;;;28.08;9.50;;;7.50;99.90;;;;;;5040187;28;20400;-67
2022/11/30 05:51:28;;;;;;;22.90;8.35;;;7.50;99.90;;;;;;5025280;28;20041;-67
2022/11/30 05:53:54;;;;;;;20.05;8.20;;;7.50;99.90;;;;;;5037746;28;20030;-66
2022/11/30 05:56:21;;;;;;;23.52;7.43;;;7.50;99.90;;;;;;5053188;22;20048;-65
2022/11/30 05:58:47;;;;;;;25.73;8.38;;;7.40;99.90;;;;;;5040384;28;20021;-66
2022/11/30 06:01:22;;;;;;;34.53;9.35;;;7.50;99.90;;;;;;5035457;28;20086;-65
2022/11/30 06:03:48;;;;;;;36.40;8.50;;;7.50;99.90;;;;;;5027292;28;20041;-64
2022/11/30 06:06:14;;;;;;;21.23;7.28;;;7.40;99.90;;;;;;5023695;28;20075;-66
2022/11/30 06:08:40;;;;;;;30.15;7.20;;;7.50;99.90;;;;;;5043657;28;20412;-66
2022/11/30 06:11:06;;;;;;;32.88;8.13;;;7.50;99.90;;;;;;5035144;28;20024;-65
2022/11/30 06:13:32;;;;;;;15.05;7.38;;;7.50;99.90;;;;;;5031575;28;20025;-65
2022/11/30 06:16:00;;;;;;;20.90;6.47;;;7.40;99.90;;;;;;5027099;28;20036;-65
2022/11/30 06:18:26;;;;;;;24.83;8.75;;;7.50;99.90;;;;;;5034735;28;20049;-65
2022/11/30 06:20:51;;;;;;;32.45;7.82;;;7.50;99.90;;;;;;5035706;28;20556;-65
2022/11/30 06:23:17;;;;;;;26.00;8.05;;;7.50;99.90;;;;;;5052976;28;20093;-64
2022/11/30 06:25:43;;;;;;;39.20;9.80;;;7.50;99.90;;;;;;5038605;28;20436;-68
2022/11/30 06:28:10;;;;;;;27.10;8.98;;;7.50;99.90;;;;;;5053246;28;20036;-67
2022/11/30 06:30:36;;;;;;;29.33;10.27;;;7.50;99.90;;;;;;5014279;28;20033;-67
2022/11/30 06:33:02;;;;;;;28.17;8.65;;;7.40;99.90;;;;;;5033707;28;20043;-67
2022/11/30 06:35:28;;;;;;;19.30;9.23;;;7.40;99.90;;;;;;5041947;28;20026;-67
2022/11/30 06:37:54;;;;;;;31.67;8.95;;;7.50;99.90;;;;;;5043677;28;20026;-66
2022/11/30 06:40:20;;;;;;;36.63;8.98;;;7.50;99.90;;;;;;5043993;28;20092;-66
2022/11/30 06:42:45;;;;;;;32.05;8.63;;;7.50;99.90;;;;;;5047013;28;20036;-65
2022/11/30 06:45:11;;;;;;;15.18;6.63;;;7.50;99.90;;;;;;5045789;28;20032;-66
2022/11/30 06:47:37;;;;;;;25.83;8.55;;;7.50;99.90;;;;;;5044623;28;20488;-66
2022/11/30 06:50:03;;;;;;;24.98;8.23;;;7.50;99.90;;;;;;5034850;28;20091;-67
2022/11/30 06:52:31;;;;;;;28.88;6.10;;;7.50;99.90;;;;;;5024623;28;20037;-67
2022/11/30 06:54:56;;;;;;;32.35;10.10;;;7.50;99.90;;;;;;5049504;28;20545;-65
2022/11/30 06:57:27;;;;;;;29.70;10.63;;;7.50;99.90;;;;;;5022702;28;20029;-66
2022/11/30 06:59:53;;;;;;;25.98;7.95;;;7.60;99.90;;;;;;5016716;28;20520;-66
2022/11/30 07:02:18;;;;;;;23.25;8.60;;;7.50;99.90;;;;;;5032263;28;20033;-66
2022/11/30 07:04:44;;;;;;;29.02;8.25;;;7.50;99.90;;;;;;5034524;28;20028;-66
2022/11/30 07:07:10;;;;;;;25.20;6.78;;;7.50;99.90;;;;;;5036199;28;20519;-66
2022/11/30 07:09:36;;;;;;;55.33;10.18;;;7.60;99.90;;;;;;5048107;28;20082;-66
2022/11/30 07:12:03;;;;;;;28.33;10.15;;;7.50;99.90;;;;;;5037613;28;20033;-66
2022/11/30 07:14:29;;;;;;;37.15;7.72;;;7.50;99.90;;;;;;5051959;28;20060;-65
2022/11/30 07:16:56;;;;;;;17.33;8.52;;;7.50;99.90;;;;;;5037669;28;20224;-66
2022/11/30 07:19:22;;;;;;;25.45;7.03;;;7.50;99.90;;;;;;5052214;28;20044;-66
2022/11/30 07:21:48;;;;;;;23.40;6.65;;;7.50;99.90;;;;;;5037221;28;20166;-65
2022/11/30 07:27:01;;;;;;;24.63;9.45;;;7.50;99.90;;;;;;5036916;28;20504;-66
2022/11/30 07:29:27;;;;;;;28.23;8.65;;;7.50;99.90;;;;;;5051554;28;20037;-66
2022/11/30 07:31:53;;;;;;;23.02;8.55;;;7.50;99.90;;;;;;5037264;28;20413;-66
2022/11/30 07:34:19;;;;;;;23.45;8.07;;;7.60;99.90;;;;;;5033912;28;20024;-66
2022/11/30 07:36:45;;;;;;;16.95;7.22;;;7.60;99.90;;;;;;5037224;28;20025;-67
2022/11/30 07:39:13;;;;;;;29.08;7.28;;;7.70;99.90;;;;;;5028186;28;20055;-65
2022/11/30 07:41:39;;;;;;;29.42;9.73;;;7.70;99.90;;;;;;5026049;28;20055;-66
2022/11/30 07:44:07;;;;;;;26.58;7.75;;;7.70;99.90;;;;;;5051291;28;20029;-66
2022/11/30 07:46:36;;;;;;;33.28;8.73;;;7.70;99.90;;;;;;5037005;28;20056;-66
2022/11/30 07:49:06;;;;;;;31.60;6.88;;;7.70;99.90;;;;;;5051644;28;20029;-66
2022/11/30 07:51:32;;;;;;;26.80;7.32;;;7.70;99.90;;;;;;5036978;28;20166;-66
2022/11/30 07:53:58;;;;;;;22.83;7.57;;;7.80;99.90;;;;;;5051329;28;20036;-66
2022/11/30 07:56:25;;;;;;;18.90;6.72;;;7.70;99.90;;;;;;5036822;28;20025;-66
2022/11/30 07:58:55;;;;;;;26.35;9.35;;;7.70;99.90;;;;;;5051419;28;20578;-66
2022/11/30 08:01:24;;;;;;;28.50;8.70;;;7.80;99.90;;;;;;5037050;28;20024;-65
2022/11/30 08:03:53;;;;;;;29.27;8.35;;;7.80;99.90;;;;;;5033478;28;20041;-66
2022/11/30 08:06:23;;;;;;;24.80;9.38;;;7.80;99.90;;;;;;5026009;28;20056;-66
2022/11/30 08:08:51;;;;;;;19.83;8.68;;;7.80;99.90;;;;;;5027868;28;20036;-66
2022/11/30 08:11:20;;;;;;;25.67;7.68;;;7.90;99.90;;;;;;5025643;28;20393;-65
2022/11/30 08:13:47;;;;;;;23.35;7.38;;;7.80;99.90;;;;;;5033372;28;20036;-66
2022/11/30 08:16:20;;;;;;;14.40;6.88;;;7.90;99.90;;;;;;5025398;28;20037;-66
2022/11/30 08:18:46;;;;;;;20.50;9.02;;;7.90;99.90;;;;;;5051055;28;20029;-66
2022/11/30 08:21:16;;;;;;;25.08;8.10;;;7.90;99.90;;;;;;5036639;28;20124;-65
2022/11/30 08:23:51;;;;;;;18.80;7.55;;;7.90;99.90;;;;;;5033089;28;20090;-66
2022/11/30 08:26:30;;;;;;;21.80;8.10;;;7.90;99.90;;;;;;5036366;28;20480;-66
2022/11/30 08:28:58;;;;;;;14.02;5.97;;;7.90;99.90;;;;;;5033456;28;20032;-66
2022/11/30 08:31:34;;;;;;;18.60;6.95;;;7.90;99.90;;;;;;5025120;28;20036;-68
2022/11/30 08:34:06;;;;;;;20.67;7.43;;;7.90;99.90;;;;;;5033028;28;20025;-68
2022/11/30 08:36:33;;;;;;;37.60;12.90;;;7.90;99.90;;;;;;5035658;28;20020;-67
2022/11/30 08:39:03;;;;;;;27.05;8.70;;;8.00;99.90;;;;;;5044410;28;20366;-67
2022/11/30 08:41:30;;;;;;;25.90;9.67;;;8.00;99.90;;;;;;5035442;28;20028;-65
2022/11/30 08:43:56;;;;;;;17.98;8.00;;;8.00;99.90;;;;;;5050478;28;20029;-65
2022/11/30 08:46:23;;;;;;;31.10;8.68;;;8.00;99.90;;;;;;5033066;28;20064;-65
2022/11/30 08:48:49;;;;;;;33.88;7.90;;;8.00;99.90;;;;;;5044911;28;20029;-66
2022/11/30 08:51:18;;;;;;;20.17;9.57;;;8.00;99.90;;;;;;5017097;28;20066;-65
2022/11/30 08:53:46;;;;;;;13.00;6.30;;;8.00;99.90;;;;;;5046310;28;20063;-65
2022/11/30 08:56:20;;;;;;;22.73;7.45;;;8.00;99.90;;;;;;5024736;28;20029;-65
2022/11/30 08:58:46;;;;;;;22.52;8.10;;;8.00;99.90;;;;;;5050684;28;20035;-66
2022/11/30 09:01:16;;;;;;;17.60;7.20;;;8.00;99.90;;;;;;5036016;28;20025;-65
2022/11/30 09:03:44;;;;;;;21.60;7.32;;;8.00;99.90;;;;;;5032591;28;20091;-66
2022/11/30 09:06:16;;;;;;;16.08;7.35;;;8.00;99.90;;;;;;5035868;28;20499;-66
2022/11/30 09:08:45;;;;;;;19.52;7.30;;;8.00;99.90;;;;;;5044540;28;20598;-66
2022/11/30 09:11:18;;;;;;;30.55;8.70;;;8.00;99.90;;;;;;5033114;28;20073;-65
2022/11/30 09:13:45;;;;;;;13.35;6.00;;;8.00;99.90;;;;;;5050172;28;20083;-65
2022/11/30 09:16:12;;;;;;;23.95;7.63;;;8.00;99.90;;;;;;5035882;28;20151;-66
2022/11/30 09:18:38;;;;;;;19.23;8.10;;;8.00;99.90;;;;;;5050314;28;20028;-66
2022/11/30 09:21:10;;;;;;;20.17;8.27;;;8.00;99.90;;;;;;5035489;28;20043;-66
2022/11/30 09:23:37;;;;;;;18.83;8.23;;;7.90;99.90;;;;;;5032327;28;20095;-66
2022/11/30 09:26:08;;;;;;;24.83;7.53;;;8.00;99.90;;;;;;5035299;28;20108;-66
2022/11/30 09:28:35;;;;;;;20.13;6.65;;;8.00;99.90;;;;;;5050408;28;20446;-66
2022/11/30 09:31:11;;;;;;;20.80;4.97;;;8.00;99.90;;;;;;5023791;28;20084;-67
2022/11/30 09:33:38;;;;;;;25.23;6.85;;;8.00;99.90;;;;;;5032397;28;20397;-66
2022/11/30 09:36:08;;;;;;;14.75;6.45;;;8.00;99.90;;;;;;5035653;28;20032;-65
2022/11/30 09:38:35;;;;;;;26.63;8.67;;;8.00;99.90;;;;;;5044461;28;20132;-66
2022/11/30 09:41:13;;;;;;;18.05;6.93;;;8.00;99.90;;;;;;5018049;28;20223;-66
2022/11/30 09:44:20;;;;;;;20.20;8.25;;;8.00;99.90;;;;;;5033445;28;20512;-66
2022/11/30 09:47:01;;;;;;;22.25;6.90;;;8.00;99.90;;;;;;5025470;28;20090;-66
2022/11/30 09:49:42;;;;;;;28.33;8.10;;;8.00;99.90;;;;;;5016760;28;20108;-66
2022/11/30 09:52:25;;;;;;;;;;;8.00;99.90;;;;;;5022023;28;20055;-66
2022/11/30 09:54:50;;;;;;;20.17;5.88;;;8.00;99.90;;;;;;5036593;28;20327;-66
2022/11/30 09:57:53;;;;;;;17.42;4.93;;;8.10;99.90;;;;;;5022693;28;20098;-66
2022/11/30 10:00:21;;;;;;;15.75;6.13;;;8.10;99.90;;;;;;4976670;28;20409;-66
2022/11/30 10:02:50;;;;;;;22.55;6.78;;;8.20;99.90;;;;;;5048358;28;20112;-64
2022/11/30 10:05:19;;;;;;;11.52;6.15;;;8.30;99.90;;;;;;5031385;28;20025;-67
2022/11/30 10:08:24;;;;;;;21.27;7.13;;;8.30;99.90;;;;;;5044730;28;20048;-65
2022/11/30 10:11:21;;;;;;;15.48;6.13;;;8.30;99.90;;;;;;5039121;28;20033;-68
2022/11/30 10:14:22;;;;;;;12.73;4.22;;;8.30;99.90;;;;;;5017301;28;20069;-66
2022/11/30 10:17:10;;;;;;;18.85;4.80;;;8.30;99.90;;;;;;5039023;28;20373;-65
2022/11/30 10:19:56;;;;;;;19.63;8.70;;;8.40;99.90;;;;;;5037097;28;20043;-64
2022/11/30 10:22:34;;;;;;;20.90;6.72;;;8.50;99.90;;;;;;5041328;28;20036;-63
2022/11/30 10:25:16;;;;;;;12.23;4.43;;;8.40;99.90;;;;;;5049810;28;20040;-65
2022/11/30 10:27:52;;;;;;;10.55;6.10;;;8.40;99.90;;;;;;5029272;28;20118;-67
2022/11/30 10:30:33;;;;;;;11.80;5.63;;;8.50;99.90;;;;;;5044257;28;20089;-68
2022/11/30 10:33:12;;;;;;;16.57;5.30;;;8.50;99.90;;;;;;5033957;28;20025;-66
2022/11/30 10:35:49;;;;;;;9.90;4.88;;;8.60;99.90;;;;;;5008010;28;20034;-67
2022/11/30 10:38:26;;;;;;;10.57;5.07;;;8.70;99.90;;;;;;5015989;28;20025;-67
2022/11/30 10:41:19;;;;;;;22.10;7.60;;;8.90;99.90;;;;;;5025602;28;20558;-67
2022/11/30 10:44:14;;;;;;;14.55;5.82;;;9.00;99.90;;;;;;5035841;28;20517;-67
2022/11/30 10:46:51;;;;;;;16.98;5.55;;;9.30;99.90;;;;;;5019977;28;20489;-67
2022/11/30 10:49:18;;;;;;;16.63;5.88;;;9.50;99.90;;;;;;5038418;28;20072;-66
2022/11/30 10:51:50;;;;;;;12.13;5.47;;;9.60;99.90;;;;;;5027024;28;20029;-66
2022/11/30 10:54:21;;;;;;;12.88;5.20;;;9.50;99.90;;;;;;5035399;28;20036;-66
2022/11/30 10:56:47;;;;;;;;;;;9.20;99.90;;;;;;5027286;28;20507;-65
2022/11/30 10:59:28;;;;;;;11.02;4.88;;;9.50;99.90;;;;;;5052758;28;19912;-66
2022/11/30 11:01:53;;;;;;;8.15;4.60;;;9.60;99.90;;;;;;5010658;28;20036;-66
2022/11/30 11:04:23;;;;;;;7.75;4.63;;;9.60;99.90;;;;;;5052004;28;20029;-66
2022/11/30 11:06:55;;;;;;;15.00;5.07;;;9.60;99.90;;;;;;5006062;28;20113;-66
2022/11/30 11:09:35;;;;;;;23.90;5.20;;;9.70;99.90;;;;;;5024195;28;20101;-66
2022/11/30 11:12:15;;;;;;;11.80;5.13;;;9.90;99.90;;;;;;5037206;28;20033;-65
2022/11/30 11:14:40;;;;;;;9.77;4.80;;;9.90;99.90;;;;;;5039301;28;20037;-66
2022/11/30 11:17:27;;;;;;;15.13;4.95;;;10.10;99.90;;;;;;5035998;28;20075;-66
2022/11/30 11:19:53;;;;;;;10.45;4.88;;;10.30;99.90;;;;;;5037786;28;20441;-66
2022/11/30 11:22:25;;;;;;;15.73;5.85;;;10.40;99.90;;;;;;5052248;28;20025;-66
2022/11/30 11:25:21;;;;;;;14.07;5.60;;;10.40;99.90;;;;;;5020154;28;20038;-65
2022/11/30 11:28:12;;;;;;;10.27;4.75;;;10.40;99.90;;;;;;5036050;28;20031;-66
2022/11/30 11:30:38;;;;;;;11.13;4.85;;;10.30;99.90;;;;;;5037939;28;20492;-63
2022/11/30 11:33:10;;;;;;;10.18;4.18;;;10.30;99.90;;;;;;5051677;28;20048;-67
2022/11/30 11:35:45;;;;;;;9.25;4.88;;;10.20;99.90;;;;;;5037649;28;20044;-65
2022/11/30 11:38:43;;;;;;;11.82;4.20;;;10.20;99.90;;;;;;5024542;28;20365;-65
2022/11/30 11:41:20;;;;;;;8.43;4.18;;;10.10;99.90;;;;;;5020080;28;20033;-62
2022/11/30 11:44:03;;;;;;;12.82;4.70;;;10.20;99.90;;;;;;5051710;28;20112;-66
2022/11/30 11:46:52;;;;;;;11.52;5.28;;;10.40;99.90;;;;;;5028778;28;20029;-66
2022/11/30 11:49:31;;;;;;;6.95;3.72;;;10.40;99.90;;;;;;5010285;28;20033;-66
2022/11/30 11:52:00;;;;;;;9.80;3.88;;;10.50;99.90;;;;;;5031383;28;20036;-66
2022/11/30 11:54:43;;;;;;;11.18;4.80;;;10.60;99.90;;;;;;5044710;28;20641;-67
2022/11/30 11:57:13;;;;;;;7.90;4.05;;;10.60;99.90;;;;;;5027499;23;20057;-63
2022/11/30 11:59:57;;;;;;;9.82;4.07;;;10.50;99.90;;;;;;5027778;28;20030;-61
2022/11/30 12:03:00;;;;;;;7.22;3.88;;;10.60;99.90;;;;;;5021066;28;20096;-60
2022/11/30 12:05:36;;;;;;;8.98;5.00;;;10.60;99.90;;;;;;4992028;28;20398;-61
2022/11/30 12:08:24;;;;;;;7.40;3.90;;;10.60;99.90;;;;;;5020791;28;20773;-61
2022/11/30 12:10:57;;;;;;;7.60;3.83;;;10.80;99.90;;;;;;5010507;28;20033;-60
2022/11/30 12:13:32;;;;;;;10.48;4.50;;;10.80;99.90;;;;;;5005244;28;20033;-60
2022/11/30 12:16:18;;;;;;;8.27;4.13;;;10.70;99.90;;;;;;5026766;28;20041;-60
2022/11/30 12:19:10;;;;;;;8.32;4.75;;;10.70;99.90;;;;;;5006984;28;20091;-60
2022/11/30 12:22:14;;;;;;;7.45;3.97;;;10.50;99.90;;;;;;5007648;28;20041;-60
2022/11/30 12:25:06;;;;;;;10.38;4.53;;;10.40;99.90;;;;;;5008996;28;20045;-60
2022/11/30 12:28:04;;;;;;;8.90;4.20;;;10.40;99.90;;;;;;5008723;28;20675;-60
2022/11/30 12:31:17;;;;;;;9.10;3.95;;;10.50;99.90;;;;;;4948339;28;20434;-60
2022/11/30 12:34:22;;;;;;;10.40;4.53;;;10.60;99.90;;;;;;4958291;28;20091;-59
2022/11/30 12:37:05;;;;;;;15.55;4.75;;;10.80;99.90;;;;;;4950067;28;20097;-60
2022/11/30 12:39:39;;;;;;;10.05;4.80;;;10.90;99.90;;;;;;4945425;28;20507;-60
2022/11/30 12:42:27;;;;;;;9.10;3.20;;;10.90;99.90;;;;;;4959849;28;20487;-59
2022/11/30 12:45:26;;;;;;;10.25;4.60;;;10.80;99.90;;;;;;4949908;28;20537;-60
2022/11/30 12:48:37;;;;;;;6.15;3.85;;;10.60;99.90;;;;;;4943486;28;20057;-61
2022/11/30 12:51:24;;;;;;;7.40;3.38;;;10.60;99.90;;;;;;4950441;28;20106;-60
2022/11/30 12:54:31;;;;;;;9.93;4.28;;;10.50;99.90;;;;;;4947681;28;20031;-60
2022/11/30 12:57:00;;;;;;;9.40;4.45;;;10.20;99.90;;;;;;4960456;28;20126;-60
2022/11/30 12:59:48;;;;;;;9.05;3.95;;;10.20;99.90;;;;;;4948200;28;20406;-60
2022/11/30 13:03:09;;;;;;;8.07;4.38;;;10.10;99.90;;;;;;4958545;28;20035;-59
2022/11/30 13:06:03;;;;;;;7.20;3.80;;;10.20;99.90;;;;;;4987913;28;20076;-59
2022/11/30 13:08:57;;;;;;;7.78;4.35;;;10.10;99.90;;;;;;5013133;28;20047;-59
2022/11/30 13:11:39;;;;;;;7.97;3.10;;;10.10;99.90;;;;;;5023769;28;20041;-59
2022/11/30 13:14:21;;;;;;;6.95;3.47;;;10.00;99.90;;;;;;5021559;28;20033;-59
2022/11/30 13:16:49;;;;;;;7.93;3.75;;;10.00;99.90;;;;;;5005306;28;20455;-61